DW9246 Almoster ES current weather conditions

sailwx.info

Air temperature 20.6° C
Dewpoint 11.7° C

Last reported at 2019-Sep-16 21:00 UTC.
Time now 2019-Sep-16 22:12 UTC

Location: N 41°11' E 001°07'.
View on Google Maps.

See reports from other nearby stations

  
Tides and Currents Weather Stations Pressure Air Temp Water Temp Dewpoint Dewpoint Depression Visibility Wind Speed Wind Dir Waves Ship Positions
date/time (UTC)wind fromknots sea level pressurealtimeterstation pressurevisibilityair tempwater tempwave heightnotes
2019-Sep-16 21:00 20.6
2019-Sep-16 20:50 20.6
2019-Sep-16 20:40 20.6
2019-Sep-16 20:30 20.6
2019-Sep-16 20:20 20.6
2019-Sep-16 20:10 21.1
2019-Sep-16 20:00 326 20.6
2019-Sep-16 19:50 20.6
2019-Sep-16 19:40 20.6
2019-Sep-16 19:30 20.6
2019-Sep-16 19:20 20.6
2019-Sep-16 19:10 21.1
2019-Sep-16 19:00 21.7
2019-Sep-16 18:50 21.7
2019-Sep-16 18:40 326 21.7
2019-Sep-16 18:30 22.2
2019-Sep-16 18:20 22.8
2019-Sep-16 18:10 23.3
2019-Sep-16 18:00 23.3
2019-Sep-16 17:50 23.3
2019-Sep-16 17:40 23.9
2019-Sep-16 17:30 24.4
2019-Sep-16 17:20 24.4
2019-Sep-16 17:10 164 0 gusting 3 25.0
2019-Sep-16 17:00 165 1 gusting 4 25.0
2019-Sep-16 16:50 161 1 gusting 4 25.6
2019-Sep-16 16:40 175 3 gusting 6 25.6
2019-Sep-16 16:30 181 2 gusting 4 25.6
2019-Sep-16 16:20 138 2 gusting 6 26.1
2019-Sep-16 16:10 156 4 gusting 7 26.1
2019-Sep-16 16:00 141 4 gusting 7 26.1
2019-Sep-16 15:50 145 4 gusting 9 25.6
2019-Sep-16 15:40 153 4 gusting 7 26.1
2019-Sep-16 15:30 160 3 gusting 7 25.6
2019-Sep-16 15:20 153 4 gusting 8 25.6
2019-Sep-16 15:10 156 6 gusting 11 26.1
2019-Sep-16 15:00 154 4 gusting 8 26.1
2019-Sep-16 14:50 148 6 gusting 10 26.1
2019-Sep-16 14:40 151 5 gusting 9 26.7
2019-Sep-16 14:30 161 6 gusting 11 26.7
2019-Sep-16 14:20 155 6 gusting 10 26.7
2019-Sep-16 14:10 154 6 gusting 12 27.2
2019-Sep-16 14:00 113 4 gusting 9 27.2
2019-Sep-16 13:50 135 3 gusting 7 27.2
2019-Sep-16 13:40 159 4 gusting 7 27.8
2019-Sep-16 13:30 146 4 gusting 10 27.2
2019-Sep-16 13:20 113 3 gusting 7 27.2
2019-Sep-16 13:10 143 4 gusting 10 26.7
2019-Sep-16 13:00 118 2 gusting 9 27.2
2019-Sep-16 12:50 146 3 gusting 9 27.2
2019-Sep-16 12:40 148 6 gusting 12 27.2
2019-Sep-16 12:30 152 5 gusting 10 27.2
2019-Sep-16 12:20 139 4 gusting 8 27.8
2019-Sep-16 12:10 138 4 gusting 10 27.2
2019-Sep-16 12:00 133 5 gusting 9 27.2
2019-Sep-16 11:50 134 3 gusting 10 27.8
2019-Sep-16 11:40 115 5 gusting 11 26.7
2019-Sep-16 11:30 139 5 gusting 11 27.2
2019-Sep-16 11:20 153 6 gusting 13 26.7
2019-Sep-16 11:10 159 4 gusting 11 26.7
2019-Sep-16 11:00 150 4 gusting 9 27.2
2019-Sep-16 10:50 147 5 gusting 10 26.7
2019-Sep-16 10:40 145 3 gusting 10 26.7
2019-Sep-16 10:30 146 6 gusting 11 26.7
2019-Sep-16 10:20 137 5 gusting 11 26.7
2019-Sep-16 10:10 142 3 gusting 10 27.2
2019-Sep-16 10:00 131 2 gusting 10 26.7
2019-Sep-16 09:50 103 3 gusting 7 26.1
2019-Sep-16 09:40 116 4 gusting 8 26.1
2019-Sep-16 09:30 108 2 gusting 6 26.7
2019-Sep-16 09:20 086 3 gusting 7 25.6
2019-Sep-16 09:10 087 3 gusting 6 25.6
2019-Sep-16 09:00 095 4 gusting 8 25.6
2019-Sep-16 08:50 100 3 gusting 7 25.6
2019-Sep-16 08:40 104 2 gusting 8 25.6
2019-Sep-16 08:30 089 2 gusting 8 25.6
2019-Sep-16 08:20 097 3 gusting 7 25.6
2019-Sep-16 08:10 082 3 gusting 7 25.0
2019-Sep-16 08:00 079 2 gusting 6 25.0
2019-Sep-16 07:50 076 3 gusting 7 25.0
2019-Sep-16 07:40 067 2 gusting 7 24.4
2019-Sep-16 07:30 075 3 gusting 6 24.4
2019-Sep-16 07:20 063 2 gusting 7 24.4
2019-Sep-16 07:10 067 2 gusting 6 24.4
2019-Sep-16 07:00 063 3 gusting 6 24.4
2019-Sep-16 06:50 049 1 gusting 5 23.9
2019-Sep-16 06:40 054 0 gusting 5 23.3
2019-Sep-16 06:30 050 23.3
2019-Sep-16 06:20 046 0 gusting 5 23.3
2019-Sep-16 06:10 039 22.8
2019-Sep-16 06:00 22.2
2019-Sep-16 05:50 079 22.2
2019-Sep-16 05:40 022 22.2
2019-Sep-16 05:30 22.2
2019-Sep-16 05:20 21.7
2019-Sep-16 05:10 22.2
2019-Sep-16 05:00 22.2
2019-Sep-16 04:50 22.8
2019-Sep-16 04:40 22.8
2019-Sep-16 04:30 027 23.3
2019-Sep-16 04:20 23.3
2019-Sep-16 04:10 23.9
2019-Sep-16 04:00 23.9
2019-Sep-16 03:50 042 0 gusting 5 23.9
2019-Sep-16 03:40 027 1 gusting 6 24.4
2019-Sep-16 03:30 024 2 gusting 7 23.9
2019-Sep-16 03:20 028 3 gusting 9 24.4
2019-Sep-16 03:10 030 4 gusting 10 24.4
2019-Sep-16 03:00 035 4 gusting 10 24.4
2019-Sep-16 02:50 032 2 gusting 6 23.9
2019-Sep-16 02:40 032 4 gusting 12 23.9
2019-Sep-16 02:30 034 3 gusting 8 23.9
2019-Sep-16 02:20 027 5 gusting 10 23.9
2019-Sep-16 02:10 032 5 gusting 13 23.9
2019-Sep-16 02:00 034 6 gusting 12 23.9
2019-Sep-16 01:50 043 6 gusting 12 23.9
2019-Sep-16 01:40 033 8 gusting 15 23.9
2019-Sep-16 01:30 030 6 gusting 14 23.9
2019-Sep-16 01:20 030 7 gusting 13 23.9
2019-Sep-16 01:10 042 5 gusting 10 23.9
2019-Sep-16 01:00 042 6 gusting 10 23.9
2019-Sep-16 00:50 039 6 gusting 13 23.9
2019-Sep-16 00:40 039 6 gusting 13 23.9
2019-Sep-16 00:30 041 4 gusting 9 23.3
2019-Sep-16 00:20 042 3 gusting 10 23.3
2019-Sep-16 00:10 048 3 gusting 9 23.9
2019-Sep-16 00:00 045 5 gusting 13 23.9
2019-Sep-15 23:50 034 6 gusting 11 23.9
2019-Sep-15 23:40 034 6 gusting 13 23.9
2019-Sep-15 23:30 035 6 gusting 13 23.9
2019-Sep-15 23:20 033 6 gusting 14 23.9
2019-Sep-15 23:10 037 6 gusting 13 23.9
2019-Sep-15 23:00 035 6 gusting 13 23.3
2019-Sep-15 22:50 040 6 gusting 13 23.3
2019-Sep-15 22:40 040 5 gusting 12 23.3
2019-Sep-15 22:30 038 6 gusting 12 23.3
2019-Sep-15 22:20 040 4 gusting 13 23.3
2019-Sep-15 22:10 044 5 gusting 10 23.3
2019-Sep-15 22:00 050 5 gusting 12 23.3
2019-Sep-15 21:50 054 6 gusting 10 23.3
2019-Sep-15 21:40 053 5 gusting 10 23.3
2019-Sep-15 21:30 059 4 gusting 9 23.3
2019-Sep-15 21:20 052 5 gusting 9 23.3
2019-Sep-15 21:10 052 4 gusting 8 23.3
2019-Sep-15 21:00 049 5 gusting 8 23.3
2019-Sep-15 20:50 051 5 gusting 10 23.3
2019-Sep-15 20:40 053 4 gusting 8 23.3
2019-Sep-15 20:30 054 4 gusting 10 23.3
2019-Sep-15 20:20 059 3 gusting 9 22.8
2019-Sep-15 20:10 061 4 gusting 9 23.3
2019-Sep-15 20:00 060 1 gusting 7 22.8
2019-Sep-15 19:50 059 1 gusting 6 23.3
2019-Sep-15 19:40 066 0 gusting 6 23.3
2019-Sep-15 19:30 069 0 gusting 6 22.8
2019-Sep-15 19:20 065 22.8
2019-Sep-15 19:10 047 22.8
2019-Sep-15 19:00 22.8
2019-Sep-15 18:50 085 0 gusting 4 22.8
2019-Sep-15 18:40 090 0 gusting 6 22.8
2019-Sep-15 18:30 23.3
2019-Sep-15 18:20 112 0 gusting 5 23.3
2019-Sep-15 18:10 110 2 gusting 6 23.9
2019-Sep-15 18:00 102 3 gusting 7 24.4
2019-Sep-15 17:50 094 4 gusting 8 24.4
2019-Sep-15 17:40 100 3 gusting 8 25.0
2019-Sep-15 17:30 106 4 gusting 8 25.0
2019-Sep-15 17:20 105 4 gusting 7 25.0
2019-Sep-15 17:10 116 3 gusting 8 25.0
2019-Sep-15 17:00 134 3 gusting 8 25.0
2019-Sep-15 16:50 110 3 gusting 8 25.6
2019-Sep-15 16:40 113 4 gusting 10 25.6
2019-Sep-15 16:30 106 4 gusting 10 26.1
2019-Sep-15 16:20 105 6 gusting 12 26.1
2019-Sep-15 16:10 101 6 gusting 14 26.1
2019-Sep-15 16:00 101 6 gusting 12 26.1
2019-Sep-15 15:50 116 6 gusting 11 26.1
2019-Sep-15 15:40 113 5 gusting 9 25.6
2019-Sep-15 15:30 124 6 gusting 13 25.6
2019-Sep-15 15:20 135 7 gusting 13 25.6
2019-Sep-15 15:10 129 6 gusting 12 26.1
2019-Sep-15 15:00 137 6 gusting 13 25.6
2019-Sep-15 14:50 141 7 gusting 14 25.6
2019-Sep-15 14:40 128 6 gusting 14 25.0
2019-Sep-15 14:30 128 6 gusting 13 25.6
2019-Sep-15 14:20 140 7 gusting 13 26.1
2019-Sep-15 14:10 138 8 gusting 15 26.1
2019-Sep-15 14:00 138 9 gusting 16 26.7
2019-Sep-15 13:50 138 7 gusting 16 27.2
2019-Sep-15 13:40 125 6 gusting 13 27.8
2019-Sep-15 13:30 124 6 gusting 12 27.8
2019-Sep-15 13:20 114 6 gusting 13 27.2
2019-Sep-15 13:10 118 6 gusting 15 26.7
2019-Sep-15 13:00 106 5 gusting 11 27.8
2019-Sep-15 12:50 106 5 gusting 10 27.8
2019-Sep-15 12:40 099 6 gusting 11 27.8
2019-Sep-15 12:30 122 6 gusting 11 27.8
2019-Sep-15 12:20 124 6 gusting 12 27.8
2019-Sep-15 12:10 134 6 gusting 12 27.2
2019-Sep-15 12:00 105 4 gusting 10 28.3
2019-Sep-15 11:50 113 4 gusting 11 28.3
2019-Sep-15 11:40 081 4 gusting 11 27.8
2019-Sep-15 11:30 090 4 gusting 10 27.8
2019-Sep-15 11:20 082 5 gusting 12 27.8
2019-Sep-15 11:10 075 4 gusting 12 27.2
2019-Sep-15 11:00 088 4 gusting 8 27.2
2019-Sep-15 10:50 073 4 gusting 7 26.7
2019-Sep-15 10:40 053 5 gusting 13 26.7
2019-Sep-15 10:30 074 5 gusting 11 26.7
2019-Sep-15 10:20 090 3 gusting 7 26.7
2019-Sep-15 10:10 090 5 gusting 13 26.1
2019-Sep-15 10:00 085 4 gusting 9 25.6
2019-Sep-15 09:50 097 6 gusting 12 25.6
2019-Sep-15 09:40 117 6 gusting 11 25.6
2019-Sep-15 09:30 103 5 gusting 12 25.6
2019-Sep-15 09:20 103 6 gusting 13 25.6
2019-Sep-15 09:10 108 6 gusting 12 25.6
2019-Sep-15 09:00 094 5 gusting 13 25.0
2019-Sep-15 08:50 096 5 gusting 11 25.0
2019-Sep-15 08:40 084 5 gusting 10 25.0
2019-Sep-15 08:30 078 6 gusting 12 25.0
2019-Sep-15 08:20 085 7 gusting 13 24.4
2019-Sep-15 08:10 087 6 gusting 11 24.4
2019-Sep-15 08:00 076 4 gusting 12 24.4
2019-Sep-15 07:50 065 6 gusting 11 24.4
2019-Sep-15 07:40 059 6 gusting 12 23.9
2019-Sep-15 07:30 053 7 gusting 13 23.9
2019-Sep-15 07:20 054 6 gusting 11 23.3
2019-Sep-15 07:10 048 6 gusting 13 23.3
2019-Sep-15 07:00 057 5 gusting 9 23.3
2019-Sep-15 06:50 054 4 gusting 11 23.3
2019-Sep-15 06:40 052 4 gusting 8 23.3
2019-Sep-15 06:30 052 5 gusting 11 23.3
2019-Sep-15 06:20 051 5 gusting 10 23.3
2019-Sep-15 06:10 053 5 gusting 12 23.3
2019-Sep-15 06:00 048 5 gusting 11 23.3
2019-Sep-15 05:50 051 4 gusting 9 22.8
2019-Sep-15 05:40 052 5 gusting 10 23.3
2019-Sep-15 05:30 048 4 gusting 9 23.3
2019-Sep-15 05:20 049 5 gusting 10 23.3
2019-Sep-15 05:10 044 5 gusting 10 23.3
2019-Sep-15 05:00 043 4 gusting 9 22.8
2019-Sep-15 04:50 046 4 gusting 8 22.8
2019-Sep-15 04:40 043 5 gusting 12 22.8
2019-Sep-15 04:30 049 6 gusting 13 22.8
2019-Sep-15 04:20 043 6 gusting 11 22.8
2019-Sep-15 04:10 039 6 gusting 13 22.8
2019-Sep-15 04:00 039 5 gusting 10 22.8
2019-Sep-15 03:50 041 6 gusting 14 22.8
2019-Sep-15 03:40 037 7 gusting 13 22.8
2019-Sep-15 03:30 036 7 gusting 16 22.8
2019-Sep-15 03:20 037 6 gusting 15 22.8
2019-Sep-15 03:10 040 6 gusting 15 22.8
2019-Sep-15 03:00 035 6 gusting 12 22.2
2019-Sep-15 02:50 035 6 gusting 14 22.2
2019-Sep-15 02:40 048 3 gusting 7 22.2
2019-Sep-15 02:30 043 0 gusting 4 21.7
2019-Sep-15 02:20 034 0 gusting 5 21.1
2019-Sep-15 02:10 20.6
2019-Sep-15 02:00 21.1
2019-Sep-15 01:50 21.7
2019-Sep-15 01:40 21.7
2019-Sep-15 01:30 107 22.2
2019-Sep-15 01:20 062 2 gusting 6 22.8
2019-Sep-15 01:10 058 2 gusting 7 22.8
2019-Sep-15 01:00 059 2 gusting 11 22.8
2019-Sep-15 00:50 068 1 gusting 6 22.2
2019-Sep-15 00:40 071 1 gusting 6 22.2
2019-Sep-15 00:30 038 1 gusting 6 21.7
2019-Sep-15 00:20 041 0 gusting 4 21.7
2019-Sep-15 00:10 043 21.7
2019-Sep-15 00:00 068 21.7
2019-Sep-14 23:50 067 0 gusting 4 22.2
2019-Sep-14 23:40 079 1 gusting 5 22.2
2019-Sep-14 23:30 21.7
2019-Sep-14 23:20 21.7
2019-Sep-14 23:10 21.7
2019-Sep-14 23:00 22.2
2019-Sep-14 22:50 22.2
2019-Sep-14 22:40 061 23.9
2019-Sep-14 22:30 031 3 gusting 9 24.4
2019-Sep-14 22:20 042 4 gusting 9 24.4
2019-Sep-14 22:10 038 4 gusting 11 24.4
2019-Sep-14 22:00 043 6 gusting 12 24.4